KCDN/CDN METAR and TAF weather

Enter ICAO airport designator
Station Type Date Time Source
KCDN METAR 2021/09/16 21:35 UTC NOAA

KCDN 162135Z AUTO 00000KT 5SM -RA CLR 25/23 A3004 RMK AO2


Station Type Date Time Source
KCDN Decoded METAR 2021/09/16 21:35 UTC NOAA

Station name not available
Sep 16, 2021 - 05:35 PM EDT / 2021.09.16 2135 UTC
Wind: Calm:0
Visibility: 5 mile(s):0
Sky conditions: clear
Weather: light rain
Temperature: 77 F (25 C)
Dew Point: 73 F (23 C)
Relative Humidity: 88%
Pressure (altimeter): 30.04 in. Hg (1017 hPa)
ob: KCDN 162135Z AUTO 00000KT 5SM -RA CLR 25/23 A3004 RMK AO2
cycle: 21

Station Type Date Time Source
KCDN TAF UTC NOAA

Error!

Example: see airport list